Time;durP1;ratioP1;P1;durP2;ratioP2;P2;SDS_P1;SDS_P2;PMS_P1;PMS_P2;Temp;Humidity;BMP_temperature;BMP_pressure;BME280_temperature;BME280_humidity;BME280_pressure;Samples;Min_cycle;Max_cycle;Signal;HPM_P1;HPM_P2
2022/01/09 00:00:05;;;;;;;1999.90;999.90;;;;;;;;;;5046409;28;20278;-69
2022/01/09 00:02:50;;;;;;;1999.90;999.90;;;;;;;;;;5038414;28;20206;-69
2022/01/09 00:05:37;;;;;;;1999.90;999.90;;;;;;;;;;5041551;28;20713;-69
2022/01/09 00:08:22;;;;;;;1999.90;999.90;;;;;;;;;;5050355;28;20242;-69
2022/01/09 00:11:07;;;;;;;1999.90;999.90;;;;;;;;;;5046908;28;20250;-70
2022/01/09 00:13:52;;;;;;;1999.90;999.90;;;;;;;;;;5041477;28;20303;-70
2022/01/09 00:16:37;;;;;;;1999.90;999.90;;;;;;;;;;5046816;28;20213;-70
2022/01/09 00:19:22;;;;;;;1999.90;999.90;;;;;;;;;;5047846;28;20288;-69
2022/01/09 00:22:08;;;;;;;1999.90;999.90;;;;;;;;;;5045524;28;20213;-69
2022/01/09 00:24:53;;;;;;;1999.90;999.90;;;;;;;;;;5046490;28;20207;-69
2022/01/09 00:27:38;;;;;;;1999.90;999.90;;;;;;;;;;5050470;28;20213;-69
2022/01/09 00:30:24;;;;;;;1999.90;999.90;;;;;;;;;;5052790;28;20217;-69
2022/01/09 00:33:09;;;;;;;1999.90;999.90;;;;;;;;;;5042756;28;20215;-69
2022/01/09 00:35:54;;;;;;;1999.90;999.90;;;;;;;;;;5046104;28;20921;-69
2022/01/09 00:38:40;;;;;;;1999.90;999.90;;;;;;;;;;5052309;28;20226;-69
2022/01/09 00:41:25;;;;;;;1999.90;999.90;;;;;;;;;;5050079;28;20222;-70
2022/01/09 00:44:10;;;;;;;1999.90;999.90;;;;;;;;;;5051695;28;20281;-69
2022/01/09 00:46:56;;;;;;;1999.90;999.90;;;;;;;;;;5042949;28;20209;-69
2022/01/09 00:49:41;;;;;;;1999.90;999.90;;;;;;;;;;5044255;28;20746;-70
2022/01/09 00:52:26;;;;;;;1999.90;999.90;;;;;;;;;;5048138;28;20214;-69
2022/01/09 00:55:13;;;;;;;1999.90;999.90;;;;;;;;;;5052478;28;20246;-70
2022/01/09 00:57:58;;;;;;;1999.90;999.90;;;;;;;;;;5047396;28;20605;-69
2022/01/09 01:00:42;;;;;;;1999.90;999.90;;;;;;;;;;5032360;28;20807;-69
2022/01/09 01:03:27;;;;;;;1999.90;999.90;;;;;;;;;;5050499;28;20229;-69
2022/01/09 01:06:13;;;;;;;1999.90;999.90;;;;;;;;;;5045949;28;20230;-69
2022/01/09 01:08:58;;;;;;;1999.90;999.90;;;;;;;;;;5045997;28;20229;-69
2022/01/09 01:11:44;;;;;;;1999.90;999.90;;;;;;;;;;5044104;28;20225;-69
2022/01/09 01:14:31;;;;;;;1999.90;999.90;;;;;;;;;;5052037;28;20795;-69
2022/01/09 01:17:16;;;;;;;1999.90;999.90;;;;;;;;;;5043476;28;20216;-69
2022/01/09 01:20:01;;;;;;;1999.90;999.90;;;;;;;;;;5051806;28;20352;-69
2022/01/09 01:22:46;;;;;;;1999.90;999.90;;;;;;;;;;5044540;28;20212;-69
2022/01/09 01:25:31;;;;;;;1999.90;999.90;;;;;;;;;;5049749;28;20348;-70
2022/01/09 01:28:17;;;;;;;1999.90;999.90;;;;;;;;;;5047822;28;20296;-68
2022/01/09 01:31:02;;;;;;;1999.90;999.90;;;;;;;;;;5049069;28;20237;-69
2022/01/09 01:33:46;;;;;;;1999.90;999.90;;;;;;;;;;5044531;28;20206;-69
2022/01/09 01:36:31;;;;;;;1999.90;999.90;;;;;;;;;;5048166;28;20252;-69
2022/01/09 01:39:16;;;;;;;1999.90;999.90;;;;;;;;;;5051157;28;20229;-69
2022/01/09 01:42:01;;;;;;;1999.90;999.90;;;;;;;;;;5047265;28;20697;-69
2022/01/09 01:44:48;;;;;;;1999.90;999.90;;;;;;;;;;5031497;28;20788;-68
2022/01/09 01:47:34;;;;;;;1999.90;999.90;;;;;;;;;;5050437;28;20205;-69
2022/01/09 01:50:20;;;;;;;1999.90;999.90;;;;;;;;;;5045789;28;20779;-68
2022/01/09 01:53:07;;;;;;;1999.90;999.90;;;;;;;;;;5051282;28;20703;-69
2022/01/09 01:55:55;;;;;;;1999.90;999.90;;;;;;;;;;5045043;28;20397;-69
2022/01/09 01:58:40;;;;;;;1999.90;999.90;;;;;;;;;;5043039;28;20234;-69
2022/01/09 02:01:26;;;;;;;1999.90;999.90;;;;;;;;;;5043780;28;20527;-69
2022/01/09 02:04:11;;;;;;;1999.90;999.90;;;;;;;;;;5051723;28;20931;-70
2022/01/09 02:06:57;;;;;;;1999.90;999.90;;;;;;;;;;5045754;28;20205;-69
2022/01/09 02:09:43;;;;;;;1999.90;999.90;;;;;;;;;;5044404;28;20246;-69
2022/01/09 02:12:29;;;;;;;1999.90;999.90;;;;;;;;;;5061130;28;20221;-69
2022/01/09 02:15:28;;;;;;;1999.90;999.90;;;;;;;;;;5069214;28;20308;-69
2022/01/09 02:18:15;;;;;;;1999.90;999.90;;;;;;;;;;5067354;28;20738;-69
2022/01/09 02:21:02;;;;;;;1999.90;999.90;;;;;;;;;;5062372;28;20687;-69
2022/01/09 02:23:49;;;;;;;1999.90;999.90;;;;;;;;;;5059642;28;20224;-69
2022/01/09 02:26:33;;;;;;;1999.90;999.90;;;;;;;;;;5061822;28;20215;-69
2022/01/09 02:29:18;;;;;;;1999.90;999.90;;;;;;;;;;5067343;28;20246;-69
2022/01/09 02:32:03;;;;;;;1999.90;999.90;;;;;;;;;;5066634;28;20263;-69
2022/01/09 02:34:50;;;;;;;1999.90;999.90;;;;;;;;;;5069332;28;20271;-69
2022/01/09 02:37:36;;;;;;;1999.90;999.90;;;;;;;;;;5066652;28;20335;-69
2022/01/09 02:40:22;;;;;;;1999.90;999.90;;;;;;;;;;5068064;28;20570;-69
2022/01/09 02:43:07;;;;;;;1999.90;999.90;;;;;;;;;;5070424;28;20212;-69
2022/01/09 02:45:59;;;;;;;1999.90;999.90;;;;;;;;;;5063550;28;20218;-69
2022/01/09 02:48:45;;;;;;;1999.90;999.90;;;;;;;;;;5062511;28;20307;-69
2022/01/09 02:51:30;;;;;;;1999.90;999.90;;;;;;;;;;5065020;28;20379;-69
2022/01/09 02:57:24;;;;;;;1999.90;999.90;;;;;;;;;;5055964;28;20218;-69
2022/01/09 03:00:10;;;;;;;1999.90;999.90;;;;;;;;;;5065081;28;20248;-69
2022/01/09 03:02:56;;;;;;;1999.90;999.90;;;;;;;;;;5054679;28;20205;-69
2022/01/09 03:05:41;;;;;;;1999.90;999.90;;;;;;;;;;5062602;28;20213;-70
2022/01/09 03:08:26;;;;;;;1999.90;999.90;;;;;;;;;;5062785;28;20791;-69
2022/01/09 03:11:12;;;;;;;1999.90;999.90;;;;;;;;;;5066061;28;20597;-68
2022/01/09 03:13:57;;;;;;;1999.90;999.90;;;;;;;;;;5070695;28;20214;-69
2022/01/09 03:16:42;;;;;;;1999.90;999.90;;;;;;;;;;5066460;28;20323;-69
2022/01/09 03:19:26;;;;;;;1999.90;999.90;;;;;;;;;;5067094;28;20235;-69
2022/01/09 03:22:11;;;;;;;1999.90;999.90;;;;;;;;;;5062169;28;20218;-69
2022/01/09 03:24:56;;;;;;;1999.90;999.90;;;;;;;;;;5062262;28;20685;-70
2022/01/09 03:27:45;;;;;;;1999.90;999.90;;;;;;;;;;5053557;28;20264;-69
2022/01/09 03:30:30;;;;;;;1999.90;999.90;;;;;;;;;;5064416;28;20605;-69
2022/01/09 03:33:15;;;;;;;1999.90;999.90;;;;;;;;;;5066649;28;20230;-70
2022/01/09 03:36:00;;;;;;;1999.90;999.90;;;;;;;;;;5060915;28;20772;-69
2022/01/09 03:38:44;;;;;;;1999.90;999.90;;;;;;;;;;5057594;28;20477;-69
2022/01/09 03:41:29;;;;;;;1999.90;999.90;;;;;;;;;;5064320;28;20216;-69
2022/01/09 03:44:15;;;;;;;1999.90;999.90;;;;;;;;;;5064351;28;20225;-69
2022/01/09 03:47:00;;;;;;;1999.90;999.90;;;;;;;;;;5053102;28;20223;-69
2022/01/09 03:49:45;;;;;;;1999.90;999.90;;;;;;;;;;5053333;28;20595;-69
2022/01/09 03:52:30;;;;;;;1999.90;999.90;;;;;;;;;;5052792;28;20224;-69
2022/01/09 03:55:16;;;;;;;1999.90;999.90;;;;;;;;;;5053643;28;20348;-70
2022/01/09 03:58:01;;;;;;;1999.90;999.90;;;;;;;;;;5059331;28;20212;-69
2022/01/09 04:00:47;;;;;;;1999.90;999.90;;;;;;;;;;5066149;28;20576;-69
2022/01/09 04:03:32;;;;;;;1999.90;999.90;;;;;;;;;;5067281;28;20213;-69
2022/01/09 04:06:17;;;;;;;1999.90;999.90;;;;;;;;;;5070396;28;20561;-69
2022/01/09 04:09:08;;;;;;;1999.90;999.90;;;;;;;;;;5060975;28;20241;-69
2022/01/09 04:11:57;;;;;;;1999.90;999.90;;;;;;;;;;5058058;28;20267;-69
2022/01/09 04:14:43;;;;;;;1999.90;999.90;;;;;;;;;;5061488;28;20195;-70
2022/01/09 04:17:38;;;;;;;1999.90;999.90;;;;;;;;;;5056857;28;20213;-69
2022/01/09 04:20:25;;;;;;;1999.90;999.90;;;;;;;;;;5064969;28;20201;-69
2022/01/09 04:23:11;;;;;;;1999.90;999.90;;;;;;;;;;5066825;28;20291;-69
2022/01/09 04:25:56;;;;;;;1999.90;999.90;;;;;;;;;;5067043;28;20215;-69
2022/01/09 04:28:41;;;;;;;1999.90;999.90;;;;;;;;;;5060736;28;20230;-70
2022/01/09 04:31:26;;;;;;;1999.90;999.90;;;;;;;;;;5064142;28;20222;-69
2022/01/09 04:34:12;;;;;;;1999.90;999.90;;;;;;;;;;5060970;28;20214;-69
2022/01/09 04:37:00;;;;;;;1999.90;999.90;;;;;;;;;;5058395;28;20208;-69
2022/01/09 04:39:47;;;;;;;1999.90;999.90;;;;;;;;;;5063582;28;20415;-69
2022/01/09 04:42:38;;;;;;;1999.90;999.90;;;;;;;;;;5067890;28;20213;-70
2022/01/09 04:45:25;;;;;;;1999.90;999.90;;;;;;;;;;5070395;28;20210;-69
2022/01/09 04:48:12;;;;;;;1999.90;999.90;;;;;;;;;;5061395;28;20847;-69
2022/01/09 04:50:59;;;;;;;1999.90;999.90;;;;;;;;;;5052065;28;20705;-69
2022/01/09 04:53:43;;;;;;;1999.90;999.90;;;;;;;;;;5060516;28;20221;-69
2022/01/09 04:56:29;;;;;;;1999.90;999.90;;;;;;;;;;5054219;28;20296;-70
2022/01/09 04:59:14;;;;;;;1999.90;999.90;;;;;;;;;;5063972;28;20226;-69
2022/01/09 05:01:59;;;;;;;1999.90;999.90;;;;;;;;;;5067135;28;20221;-69
2022/01/09 05:04:44;;;;;;;1999.90;999.90;;;;;;;;;;5063875;28;20403;-69
2022/01/09 05:07:30;;;;;;;1999.90;999.90;;;;;;;;;;5063834;28;20215;-69
2022/01/09 05:10:15;;;;;;;1999.90;999.90;;;;;;;;;;5060332;28;20222;-69
2022/01/09 05:13:00;;;;;;;1999.90;999.90;;;;;;;;;;5060082;28;20210;-70
2022/01/09 05:15:45;;;;;;;1999.90;999.90;;;;;;;;;;5052086;28;20267;-69
2022/01/09 05:18:30;;;;;;;1999.90;999.90;;;;;;;;;;5062002;28;20823;-70
2022/01/09 05:21:15;;;;;;;1999.90;999.90;;;;;;;;;;5064733;28;20217;-69
2022/01/09 05:24:01;;;;;;;1999.90;999.90;;;;;;;;;;5064291;28;20217;-69
2022/01/09 05:26:46;;;;;;;1999.90;999.90;;;;;;;;;;5060201;28;20280;-70
2022/01/09 05:29:31;;;;;;;1999.90;999.90;;;;;;;;;;5070438;28;20710;-69
2022/01/09 05:32:16;;;;;;;1999.90;999.90;;;;;;;;;;5061009;28;20276;-70
2022/01/09 05:35:01;;;;;;;1999.90;999.90;;;;;;;;;;5070671;28;20576;-69
2022/01/09 05:37:46;;;;;;;1999.90;999.90;;;;;;;;;;5058619;28;20217;-70
2022/01/09 05:40:32;;;;;;;1999.90;999.90;;;;;;;;;;5059553;28;20213;-69
2022/01/09 05:43:17;;;;;;;1999.90;999.90;;;;;;;;;;5063470;28;20243;-70
2022/01/09 05:46:02;;;;;;;1999.90;999.90;;;;;;;;;;5066885;28;20283;-69
2022/01/09 05:48:47;;;;;;;1999.90;999.90;;;;;;;;;;5064280;28;20277;-69
2022/01/09 05:51:32;;;;;;;1999.90;999.90;;;;;;;;;;5064652;28;20214;-69
2022/01/09 05:54:17;;;;;;;1999.90;999.90;;;;;;;;;;5062883;28;20217;-70
2022/01/09 05:57:04;;;;;;;1999.90;999.90;;;;;;;;;;5059857;28;20279;-70
2022/01/09 05:59:49;;;;;;;1999.90;999.90;;;;;;;;;;5050934;28;20224;-69
2022/01/09 06:02:33;;;;;;;1999.90;999.90;;;;;;;;;;5061485;28;20210;-70
2022/01/09 06:05:18;;;;;;;1999.90;999.90;;;;;;;;;;5059097;28;20251;-70
2022/01/09 06:08:04;;;;;;;1999.90;999.90;;;;;;;;;;5061449;28;20448;-68
2022/01/09 06:10:49;;;;;;;1999.90;999.90;;;;;;;;;;5061808;28;20553;-70
2022/01/09 06:13:35;;;;;;;1999.90;999.90;;;;;;;;;;5064885;28;20311;-69
2022/01/09 06:16:22;;;;;;;1999.90;999.90;;;;;;;;;;5075657;28;20209;-70
2022/01/09 06:19:07;;;;;;;1999.90;999.90;;;;;;;;;;5064814;28;20224;-69
2022/01/09 06:21:52;;;;;;;1999.90;999.90;;;;;;;;;;5062251;28;20216;-70
2022/01/09 06:24:37;;;;;;;1999.90;999.90;;;;;;;;;;5061728;28;20266;-68
2022/01/09 06:27:22;;;;;;;1999.90;999.90;;;;;;;;;;5057171;28;20575;-68
2022/01/09 06:30:09;;;;;;;1999.90;999.90;;;;;;;;;;5054090;28;20229;-67
2022/01/09 06:32:54;;;;;;;1999.90;999.90;;;;;;;;;;5054495;28;20355;-69
2022/01/09 06:35:40;;;;;;;1999.90;999.90;;;;;;;;;;5053399;28;20458;-70
2022/01/09 06:38:25;;;;;;;1999.90;999.90;;;;;;;;;;5067805;28;20331;-70
2022/01/09 06:41:10;;;;;;;1999.90;999.90;;;;;;;;;;5073041;28;20277;-70
2022/01/09 06:43:55;;;;;;;1999.90;999.90;;;;;;;;;;5070459;28;20200;-70
2022/01/09 06:46:42;;;;;;;1999.90;999.90;;;;;;;;;;5073280;28;20574;-70
2022/01/09 06:49:27;;;;;;;1999.90;999.90;;;;;;;;;;5072546;28;20224;-70
2022/01/09 06:52:12;;;;;;;1999.90;999.90;;;;;;;;;;5072486;28;20294;-71
2022/01/09 06:54:57;;;;;;;1999.90;999.90;;;;;;;;;;5073164;28;20564;-69
2022/01/09 06:57:42;;;;;;;1999.90;999.90;;;;;;;;;;5069901;28;20335;-70
2022/01/09 07:00:27;;;;;;;1999.90;999.90;;;;;;;;;;5061183;28;20209;-70
2022/01/09 07:03:13;;;;;;;1999.90;999.90;;;;;;;;;;5060919;28;20212;-70
2022/01/09 07:05:58;;;;;;;1999.90;999.90;;;;;;;;;;5066392;28;20205;-70
2022/01/09 07:08:43;;;;;;;1999.90;999.90;;;;;;;;;;5068362;28;20363;-70
2022/01/09 07:11:28;;;;;;;1999.90;999.90;;;;;;;;;;5073142;28;20209;-69
2022/01/09 07:14:14;;;;;;;1999.90;999.90;;;;;;;;;;5072562;28;20551;-71
2022/01/09 07:16:59;;;;;;;1999.90;999.90;;;;;;;;;;5072295;28;20602;-71
2022/01/09 07:19:45;;;;;;;1999.90;999.90;;;;;;;;;;5065224;28;20224;-70
2022/01/09 07:22:30;;;;;;;1999.90;999.90;;;;;;;;;;5072573;28;20201;-70
2022/01/09 07:25:15;;;;;;;1999.90;999.90;;;;;;;;;;5072209;28;20576;-70
2022/01/09 07:28:02;;;;;;;1999.90;999.90;;;;;;;;;;5071731;28;20209;-70
2022/01/09 07:30:46;;;;;;;1999.90;999.90;;;;;;;;;;5072335;28;20782;-70
2022/01/09 07:33:31;;;;;;;1999.90;999.90;;;;;;;;;;5071529;28;20221;-69
2022/01/09 07:36:19;;;;;;;1999.90;999.90;;;;;;;;;;5060888;28;20212;-70
2022/01/09 07:39:04;;;;;;;1999.90;999.90;;;;;;;;;;5054327;28;20237;-69
2022/01/09 07:41:50;;;;;;;1999.90;999.90;;;;;;;;;;5061686;28;20205;-70
2022/01/09 07:44:35;;;;;;;1999.90;999.90;;;;;;;;;;5054562;28;20317;-70
2022/01/09 07:47:20;;;;;;;1999.90;999.90;;;;;;;;;;5069225;28;20275;-70
2022/01/09 07:50:06;;;;;;;1999.90;999.90;;;;;;;;;;5069072;28;20355;-68
2022/01/09 07:52:52;;;;;;;1999.90;999.90;;;;;;;;;;5071413;28;20297;-69
2022/01/09 07:55:37;;;;;;;1999.90;999.90;;;;;;;;;;5071947;28;20208;-69
2022/01/09 07:58:22;;;;;;;1999.90;999.90;;;;;;;;;;5052795;28;20356;-70
2022/01/09 08:01:07;;;;;;;1999.90;999.90;;;;;;;;;;5053339;28;20721;-69
2022/01/09 08:03:52;;;;;;;1999.90;999.90;;;;;;;;;;5056003;28;20220;-67
2022/01/09 08:06:37;;;;;;;1999.90;999.90;;;;;;;;;;5064433;28;20485;-66
2022/01/09 08:09:23;;;;;;;1999.90;999.90;;;;;;;;;;5054892;28;20287;-69
2022/01/09 08:12:10;;;;;;;1999.90;999.90;;;;;;;;;;5055190;28;20352;-70
2022/01/09 08:14:55;;;;;;;1999.90;999.90;;;;;;;;;;5058267;28;20209;-70
2022/01/09 08:17:44;;;;;;;1999.90;999.90;;;;;;;;;;5053715;28;20576;-69
2022/01/09 08:20:31;;;;;;;1999.90;999.90;;;;;;;;;;5053075;28;20202;-69
2022/01/09 08:23:17;;;;;;;1999.90;999.90;;;;;;;;;;5052448;28;20264;-69
2022/01/09 08:26:04;;;;;;;1999.90;999.90;;;;;;;;;;5068301;28;20306;-69
2022/01/09 08:28:49;;;;;;;1999.90;999.90;;;;;;;;;;5051874;28;20221;-69
2022/01/09 08:31:34;;;;;;;1999.90;999.90;;;;;;;;;;5060801;28;20282;-69
2022/01/09 08:34:19;;;;;;;1999.90;999.90;;;;;;;;;;5052645;28;20622;-70
2022/01/09 08:37:04;;;;;;;1999.90;999.90;;;;;;;;;;5064447;28;20227;-69
2022/01/09 08:39:49;;;;;;;1999.90;999.90;;;;;;;;;;5069651;28;20257;-69
2022/01/09 08:42:35;;;;;;;1999.90;999.90;;;;;;;;;;5052090;28;20200;-70
2022/01/09 08:45:20;;;;;;;1999.90;999.90;;;;;;;;;;5062806;28;20208;-69
2022/01/09 08:48:05;;;;;;;1999.90;999.90;;;;;;;;;;5064395;28;22114;-68
2022/01/09 08:50:50;;;;;;;1999.90;999.90;;;;;;;;;;5063609;28;20201;-69
2022/01/09 08:53:36;;;;;;;1999.90;999.90;;;;;;;;;;5052424;28;20221;-70
2022/01/09 08:56:22;;;;;;;1999.90;999.90;;;;;;;;;;5052360;28;20205;-70
2022/01/09 08:59:08;;;;;;;1999.90;999.90;;;;;;;;;;5051928;28;20225;-70
2022/01/09 09:01:54;;;;;;;1999.90;999.90;;;;;;;;;;5056988;28;20234;-70
2022/01/09 09:04:39;;;;;;;1999.90;999.90;;;;;;;;;;5052039;28;20204;-71
2022/01/09 09:07:24;;;;;;;1999.90;999.90;;;;;;;;;;5051729;28;20209;-71
2022/01/09 09:10:10;;;;;;;1999.90;999.90;;;;;;;;;;5043247;28;20236;-71
2022/01/09 09:12:55;;;;;;;1999.90;999.90;;;;;;;;;;5040757;28;20218;-70
2022/01/09 09:15:41;;;;;;;1999.90;999.90;;;;;;;;;;5034096;28;20209;-69
2022/01/09 09:18:26;;;;;;;1999.90;999.90;;;;;;;;;;5031759;28;20237;-69
2022/01/09 09:21:11;;;;;;;1999.90;999.90;;;;;;;;;;5036157;28;20284;-71
2022/01/09 09:23:56;;;;;;;1999.90;999.90;;;;;;;;;;5045563;28;20210;-69
2022/01/09 09:26:41;;;;;;;1999.90;999.90;;;;;;;;;;5033354;28;20284;-70
2022/01/09 09:29:26;;;;;;;1999.90;999.90;;;;;;;;;;5044305;28;20283;-71
2022/01/09 09:32:13;;;;;;;1999.90;999.90;;;;;;;;;;5035401;28;20205;-69
2022/01/09 09:34:58;;;;;;;1999.90;999.90;;;;;;;;;;5031627;28;20207;-71
2022/01/09 09:37:43;;;;;;;1999.90;999.90;;;;;;;;;;5031518;28;20712;-70
2022/01/09 09:40:28;;;;;;;1999.90;999.90;;;;;;;;;;5031310;28;20824;-70
2022/01/09 09:43:13;;;;;;;1999.90;999.90;;;;;;;;;;5031834;28;20864;-70
2022/01/09 09:45:58;;;;;;;1999.90;999.90;;;;;;;;;;5030876;28;20207;-71
2022/01/09 09:48:46;;;;;;;1999.90;999.90;;;;;;;;;;5030863;28;20842;-70
2022/01/09 09:51:31;;;;;;;1999.90;999.90;;;;;;;;;;5031745;28;20221;-70
2022/01/09 09:54:16;;;;;;;1999.90;999.90;;;;;;;;;;5031373;28;20731;-71
2022/01/09 09:57:01;;;;;;;1999.90;999.90;;;;;;;;;;5034787;28;20808;-71
2022/01/09 09:59:46;;;;;;;1999.90;999.90;;;;;;;;;;5043238;28;20225;-69
2022/01/09 10:02:40;;;;;;;1999.90;999.90;;;;;;;;;;5042189;28;20231;-70
2022/01/09 10:05:27;;;;;;;1999.90;999.90;;;;;;;;;;5030892;28;20310;-70
2022/01/09 10:08:15;;;;;;;1999.90;999.90;;;;;;;;;;5032621;28;20309;-68
2022/01/09 10:11:00;;;;;;;1999.90;999.90;;;;;;;;;;5057036;28;20246;-71
2022/01/09 10:13:45;;;;;;;1999.90;999.90;;;;;;;;;;5053892;28;20758;-72
2022/01/09 10:16:30;;;;;;;1999.90;999.90;;;;;;;;;;5059374;28;20594;-71
2022/01/09 10:19:15;;;;;;;1999.90;999.90;;;;;;;;;;5053999;28;20234;-69
2022/01/09 10:22:02;;;;;;;1999.90;999.90;;;;;;;;;;5051117;28;20589;-71
2022/01/09 10:24:47;;;;;;;1999.90;999.90;;;;;;;;;;5059439;28;20691;-71
2022/01/09 10:27:32;;;;;;;1999.90;999.90;;;;;;;;;;5055585;28;20586;-69
2022/01/09 10:30:18;;;;;;;1999.90;999.90;;;;;;;;;;5057594;28;20247;-69
2022/01/09 10:33:06;;;;;;;1999.90;999.90;;;;;;;;;;5064585;28;20208;-70
2022/01/09 10:35:51;;;;;;;1999.90;999.90;;;;;;;;;;5057940;28;20311;-71
2022/01/09 10:38:39;;;;;;;1999.90;999.90;;;;;;;;;;5050980;28;20247;-71
2022/01/09 10:41:24;;;;;;;1999.90;999.90;;;;;;;;;;5067629;28;20353;-71
2022/01/09 10:44:13;;;;;;;1999.90;999.90;;;;;;;;;;5055134;28;20211;-71
2022/01/09 10:47:01;;;;;;;1999.90;999.90;;;;;;;;;;5067386;28;20216;-71
2022/01/09 10:49:47;;;;;;;1999.90;999.90;;;;;;;;;;5057504;28;20350;-71
2022/01/09 10:52:38;;;;;;;1999.90;999.90;;;;;;;;;;5062130;28;20722;-71
2022/01/09 10:55:30;;;;;;;1999.90;999.90;;;;;;;;;;5070004;28;20341;-71
2022/01/09 10:58:16;;;;;;;1999.90;999.90;;;;;;;;;;5054393;28;20242;-70
2022/01/09 11:01:18;;;;;;;1999.90;999.90;;;;;;;;;;5063788;28;20227;-70
2022/01/09 11:04:05;;;;;;;1999.90;999.90;;;;;;;;;;5055680;28;20939;-70
2022/01/09 11:06:50;;;;;;;1999.90;999.90;;;;;;;;;;5054302;28;20222;-70
2022/01/09 11:09:35;;;;;;;1999.90;999.90;;;;;;;;;;5040736;28;20720;-70
2022/01/09 11:12:23;;;;;;;1999.90;999.90;;;;;;;;;;5042931;28;20230;-71
2022/01/09 11:15:09;;;;;;;1999.90;999.90;;;;;;;;;;5043616;28;20607;-71
2022/01/09 11:17:55;;;;;;;1999.90;999.90;;;;;;;;;;5049066;28;20220;-72
2022/01/09 11:20:41;;;;;;;1999.90;999.90;;;;;;;;;;5034565;28;20307;-71
2022/01/09 11:23:29;;;;;;;1999.90;999.90;;;;;;;;;;5041595;28;20215;-70
2022/01/09 11:26:14;;;;;;;1999.90;999.90;;;;;;;;;;5037721;28;20281;-71
2022/01/09 11:29:02;;;;;;;1999.90;999.90;;;;;;;;;;5040265;28;20244;-70
2022/01/09 11:31:52;;;;;;;1999.90;999.90;;;;;;;;;;5037150;28;20215;-69
2022/01/09 11:34:42;;;;;;;1999.90;999.90;;;;;;;;;;5043339;28;20938;-71
2022/01/09 11:37:36;;;;;;;1999.90;999.90;;;;;;;;;;5052721;28;20198;-71
2022/01/09 11:40:22;;;;;;;1999.90;999.90;;;;;;;;;;5053284;28;20241;-71
2022/01/09 11:43:08;;;;;;;1999.90;999.90;;;;;;;;;;5053986;28;20205;-70
2022/01/09 11:46:01;;;;;;;1999.90;999.90;;;;;;;;;;5037197;28;20582;-71
2022/01/09 11:48:59;;;;;;;1999.90;999.90;;;;;;;;;;5047921;28;20741;-70
2022/01/09 11:51:50;;;;;;;1999.90;999.90;;;;;;;;;;5039701;28;20334;-71
2022/01/09 11:54:47;;;;;;;1999.90;999.90;;;;;;;;;;5043324;28;20431;-71
2022/01/09 11:57:37;;;;;;;1999.90;999.90;;;;;;;;;;5044029;28;20223;-70
2022/01/09 12:00:29;;;;;;;1999.90;999.90;;;;;;;;;;5038643;28;20293;-72
2022/01/09 12:03:37;;;;;;;1999.90;999.90;;;;;;;;;;5044159;28;20207;-72
2022/01/09 12:06:39;;;;;;;1999.90;999.90;;;;;;;;;;5033883;28;20204;-72
2022/01/09 12:09:31;;;;;;;1999.90;999.90;;;;;;;;;;5044912;28;20350;-70
2022/01/09 12:12:18;;;;;;;1999.90;999.90;;;;;;;;;;5053546;28;20257;-71
2022/01/09 12:15:04;;;;;;;1999.90;999.90;;;;;;;;;;5053133;28;20225;-71
2022/01/09 12:17:49;;;;;;;1999.90;999.90;;;;;;;;;;5053790;28;20205;-71
2022/01/09 12:20:41;;;;;;;1999.90;999.90;;;;;;;;;;5054018;28;20691;-70
2022/01/09 12:23:26;;;;;;;1999.90;999.90;;;;;;;;;;5071517;28;20497;-72
2022/01/09 12:26:26;;;;;;;1999.90;999.90;;;;;;;;;;5073303;28;20201;-71
2022/01/09 12:29:32;;;;;;;1999.90;999.90;;;;;;;;;;5072696;28;20227;-71
2022/01/09 12:32:36;;;;;;;1999.90;999.90;;;;;;;;;;5071763;28;20673;-70
2022/01/09 12:35:21;;;;;;;1999.90;999.90;;;;;;;;;;5052611;28;20234;-72
2022/01/09 12:38:08;;;;;;;1999.90;999.90;;;;;;;;;;5052637;28;20207;-71
2022/01/09 12:40:56;;;;;;;1999.90;999.90;;;;;;;;;;5060285;28;20234;-71
2022/01/09 12:43:41;;;;;;;1999.90;999.90;;;;;;;;;;5072690;28;20328;-71
2022/01/09 12:46:26;;;;;;;1999.90;999.90;;;;;;;;;;5072743;28;20210;-72
2022/01/09 12:49:14;;;;;;;1999.90;999.90;;;;;;;;;;5072312;28;20313;-72
2022/01/09 12:52:02;;;;;;;1999.90;999.90;;;;;;;;;;5052597;28;20216;-70
2022/01/09 12:55:03;;;;;;;1999.90;999.90;;;;;;;;;;5052358;28;20229;-70
2022/01/09 12:57:51;;;;;;;1999.90;999.90;;;;;;;;;;5070680;28;20209;-71
2022/01/09 13:00:36;;;;;;;1999.90;999.90;;;;;;;;;;5055430;28;20210;-71
2022/01/09 13:03:22;;;;;;;1999.90;999.90;;;;;;;;;;5052393;28;20696;-71
2022/01/09 13:06:08;;;;;;;1999.90;999.90;;;;;;;;;;5053150;28;20576;-71
2022/01/09 13:08:54;;;;;;;1999.90;999.90;;;;;;;;;;5051939;28;20238;-71
2022/01/09 13:11:40;;;;;;;1999.90;999.90;;;;;;;;;;5056029;28;20211;-70
2022/01/09 13:14:25;;;;;;;1999.90;999.90;;;;;;;;;;5056580;28;20343;-71
2022/01/09 13:17:11;;;;;;;1999.90;999.90;;;;;;;;;;5062807;28;20449;-72
2022/01/09 13:19:56;;;;;;;1999.90;999.90;;;;;;;;;;5051899;28;20352;-72
2022/01/09 13:22:41;;;;;;;1999.90;999.90;;;;;;;;;;5064757;28;20210;-71
2022/01/09 13:25:26;;;;;;;1999.90;999.90;;;;;;;;;;5072297;28;20292;-71
2022/01/09 13:28:19;;;;;;;1999.90;999.90;;;;;;;;;;5071858;28;20273;-71
2022/01/09 13:31:04;;;;;;;1999.90;999.90;;;;;;;;;;5072520;28;20776;-72
2022/01/09 13:33:57;;;;;;;1999.90;999.90;;;;;;;;;;5072461;28;20207;-71
2022/01/09 13:36:46;;;;;;;1999.90;999.90;;;;;;;;;;5061939;28;20201;-69
2022/01/09 13:39:31;;;;;;;1999.90;999.90;;;;;;;;;;5051742;28;20251;-71
2022/01/09 13:42:22;;;;;;;1999.90;999.90;;;;;;;;;;5051902;28;20207;-71
2022/01/09 13:45:11;;;;;;;1999.90;999.90;;;;;;;;;;5051899;28;20298;-71
2022/01/09 13:47:58;;;;;;;1999.90;999.90;;;;;;;;;;5050618;28;20473;-71
2022/01/09 13:50:46;;;;;;;1999.90;999.90;;;;;;;;;;5051812;28;20753;-71
2022/01/09 13:53:31;;;;;;;1999.90;999.90;;;;;;;;;;5052044;28;20688;-70
2022/01/09 13:56:17;;;;;;;1999.90;999.90;;;;;;;;;;5057328;28;20577;-70
2022/01/09 13:59:02;;;;;;;1999.90;999.90;;;;;;;;;;5066051;28;20626;-71
2022/01/09 14:01:50;;;;;;;1999.90;999.90;;;;;;;;;;5063309;28;20583;-71
2022/01/09 14:04:35;;;;;;;1999.90;999.90;;;;;;;;;;5062439;28;20679;-71
2022/01/09 14:07:21;;;;;;;1999.90;999.90;;;;;;;;;;5063805;28;20783;-71
2022/01/09 14:10:06;;;;;;;1999.90;999.90;;;;;;;;;;5056109;28;20242;-71
2022/01/09 14:12:51;;;;;;;1999.90;999.90;;;;;;;;;;5059575;28;20231;-70
2022/01/09 14:15:38;;;;;;;1999.90;999.90;;;;;;;;;;5062837;28;20721;-71
2022/01/09 14:18:26;;;;;;;1999.90;999.90;;;;;;;;;;5063614;28;20243;-71
2022/01/09 14:21:11;;;;;;;1999.90;999.90;;;;;;;;;;5059558;28;20693;-71
2022/01/09 14:24:04;;;;;;;1999.90;999.90;;;;;;;;;;5054618;28;20219;-70
2022/01/09 14:26:57;;;;;;;1999.90;999.90;;;;;;;;;;5063215;28;20332;-71
2022/01/09 14:29:42;;;;;;;1999.90;999.90;;;;;;;;;;5062763;28;20227;-71
2022/01/09 14:32:28;;;;;;;1999.90;999.90;;;;;;;;;;5067526;28;20292;-71
2022/01/09 14:35:27;;;;;;;1999.90;999.90;;;;;;;;;;5061436;28;20696;-71
2022/01/09 14:38:13;;;;;;;1999.90;999.90;;;;;;;;;;5069376;28;20230;-71
2022/01/09 14:40:59;;;;;;;1999.90;999.90;;;;;;;;;;5061965;28;20651;-70
2022/01/09 14:43:44;;;;;;;1999.90;999.90;;;;;;;;;;5062850;28;20329;-70
2022/01/09 14:46:29;;;;;;;1999.90;999.90;;;;;;;;;;5072851;28;20206;-71
2022/01/09 14:49:14;;;;;;;1999.90;999.90;;;;;;;;;;5064268;28;20229;-69
2022/01/09 14:52:02;;;;;;;1999.90;999.90;;;;;;;;;;5063333;28;20214;-70
2022/01/09 14:54:46;;;;;;;1999.90;999.90;;;;;;;;;;5057560;28;20227;-70
2022/01/09 14:57:33;;;;;;;1999.90;999.90;;;;;;;;;;5063548;28;20334;-70
2022/01/09 15:00:19;;;;;;;1999.90;999.90;;;;;;;;;;5062588;28;20313;-70
2022/01/09 15:03:04;;;;;;;1999.90;999.90;;;;;;;;;;5068624;28;20227;-71
2022/01/09 15:05:49;;;;;;;1999.90;999.90;;;;;;;;;;5067817;28;20947;-71
2022/01/09 15:08:36;;;;;;;1999.90;999.90;;;;;;;;;;5061622;28;20366;-68
2022/01/09 15:11:21;;;;;;;1999.90;999.90;;;;;;;;;;5057308;28;20927;-71
2022/01/09 15:14:06;;;;;;;1999.90;999.90;;;;;;;;;;5054461;28;20220;-71
2022/01/09 15:16:51;;;;;;;1999.90;999.90;;;;;;;;;;5064782;28;20214;-72
2022/01/09 15:19:36;;;;;;;1999.90;999.90;;;;;;;;;;5065742;28;20272;-71
2022/01/09 15:22:22;;;;;;;1999.90;999.90;;;;;;;;;;5068982;28;20217;-71
2022/01/09 15:25:08;;;;;;;1999.90;999.90;;;;;;;;;;5062199;28;20208;-71
2022/01/09 15:27:53;;;;;;;1999.90;999.90;;;;;;;;;;5062322;28;20583;-71
2022/01/09 15:30:40;;;;;;;1999.90;999.90;;;;;;;;;;5074016;28;20316;-71